sensor_id;sensor_type;location;lat;lon;timestamp;P1;durP1;ratioP1;P2;durP2;ratioP2
69906;SDS011;57190;47.918;8.112;2022-12-20T00:00:53;0.77;;;0.77;;
69906;SDS011;57190;47.918;8.112;2022-12-20T00:03:18;0.77;;;0.77;;
69906;SDS011;57190;47.918;8.112;2022-12-20T00:05:47;0.80;;;0.80;;
69906;SDS011;57190;47.918;8.112;2022-12-20T00:08:13;0.80;;;0.80;;
69906;SDS011;57190;47.918;8.112;2022-12-20T00:10:40;0.70;;;0.70;;
69906;SDS011;57190;47.918;8.112;2022-12-20T00:13:08;1.10;;;1.00;;
69906;SDS011;57190;47.918;8.112;2022-12-20T00:15:34;0.70;;;0.70;;
69906;SDS011;57190;47.918;8.112;2022-12-20T00:17:59;0.80;;;0.80;;
69906;SDS011;57190;47.918;8.112;2022-12-20T00:20:25;0.57;;;0.57;;
69906;SDS011;57190;47.918;8.112;2022-12-20T00:22:52;0.70;;;0.70;;
69906;SDS011;57190;47.918;8.112;2022-12-20T00:25:18;1.13;;;0.97;;
69906;SDS011;57190;47.918;8.112;2022-12-20T00:27:44;0.67;;;0.67;;
69906;SDS011;57190;47.918;8.112;2022-12-20T00:30:11;0.73;;;0.57;;
69906;SDS011;57190;47.918;8.112;2022-12-20T00:32:36;1.47;;;0.70;;
69906;SDS011;57190;47.918;8.112;2022-12-20T00:35:02;0.80;;;0.80;;
69906;SDS011;57190;47.918;8.112;2022-12-20T00:37:28;1.10;;;0.93;;
69906;SDS011;57190;47.918;8.112;2022-12-20T00:39:54;1.37;;;0.80;;
69906;SDS011;57190;47.918;8.112;2022-12-20T00:42:19;0.90;;;0.70;;
69906;SDS011;57190;47.918;8.112;2022-12-20T00:44:45;1.17;;;0.63;;
69906;SDS011;57190;47.918;8.112;2022-12-20T00:47:10;0.80;;;0.80;;
69906;SDS011;57190;47.918;8.112;2022-12-20T00:49:35;0.97;;;0.73;;
69906;SDS011;57190;47.918;8.112;2022-12-20T00:52:01;0.67;;;0.67;;
69906;SDS011;57190;47.918;8.112;2022-12-20T00:54:26;0.90;;;0.80;;
69906;SDS011;57190;47.918;8.112;2022-12-20T00:56:52;0.80;;;0.80;;
69906;SDS011;57190;47.918;8.112;2022-12-20T00:59:17;1.57;;;0.77;;
69906;SDS011;57190;47.918;8.112;2022-12-20T01:01:45;0.87;;;0.80;;
69906;SDS011;57190;47.918;8.112;2022-12-20T01:04:11;1.10;;;1.00;;
69906;SDS011;57190;47.918;8.112;2022-12-20T01:06:37;1.27;;;1.17;;
69906;SDS011;57190;47.918;8.112;2022-12-20T01:09:03;0.90;;;0.90;;
69906;SDS011;57190;47.918;8.112;2022-12-20T01:11:30;0.73;;;0.73;;
69906;SDS011;57190;47.918;8.112;2022-12-20T01:14:00;0.67;;;0.67;;
69906;SDS011;57190;47.918;8.112;2022-12-20T01:16:37;0.83;;;0.83;;
69906;SDS011;57190;47.918;8.112;2022-12-20T01:19:04;0.93;;;0.83;;
69906;SDS011;57190;47.918;8.112;2022-12-20T01:21:31;1.13;;;1.03;;
69906;SDS011;57190;47.918;8.112;2022-12-20T01:23:57;1.27;;;1.17;;
69906;SDS011;57190;47.918;8.112;2022-12-20T01:26:23;1.13;;;1.13;;
69906;SDS011;57190;47.918;8.112;2022-12-20T01:28:52;1.90;;;1.07;;
69906;SDS011;57190;47.918;8.112;2022-12-20T01:31:19;1.07;;;0.97;;
69906;SDS011;57190;47.918;8.112;2022-12-20T01:33:45;1.20;;;1.10;;
69906;SDS011;57190;47.918;8.112;2022-12-20T01:36:16;1.37;;;1.13;;
69906;SDS011;57190;47.918;8.112;2022-12-20T01:38:44;0.80;;;0.80;;
69906;SDS011;57190;47.918;8.112;2022-12-20T01:41:19;0.70;;;0.70;;
69906;SDS011;57190;47.918;8.112;2022-12-20T01:43:50;1.43;;;0.80;;
69906;SDS011;57190;47.918;8.112;2022-12-20T01:46:16;0.70;;;0.70;;
69906;SDS011;57190;47.918;8.112;2022-12-20T01:48:43;1.00;;;0.70;;
69906;SDS011;57190;47.918;8.112;2022-12-20T01:51:14;1.03;;;0.80;;
69906;SDS011;57190;47.918;8.112;2022-12-20T01:53:40;0.70;;;0.70;;
69906;SDS011;57190;47.918;8.112;2022-12-20T01:56:05;0.87;;;0.80;;
69906;SDS011;57190;47.918;8.112;2022-12-20T01:58:33;1.03;;;0.70;;
69906;SDS011;57190;47.918;8.112;2022-12-20T02:01:02;1.13;;;0.90;;
69906;SDS011;57190;47.918;8.112;2022-12-20T02:03:28;1.10;;;0.60;;
69906;SDS011;57190;47.918;8.112;2022-12-20T02:05:54;0.70;;;0.70;;
69906;SDS011;57190;47.918;8.112;2022-12-20T02:08:20;1.00;;;0.80;;
69906;SDS011;57190;47.918;8.112;2022-12-20T02:16:14;1.23;;;0.60;;
69906;SDS011;57190;47.918;8.112;2022-12-20T02:19:09;0.80;;;0.80;;
69906;SDS011;57190;47.918;8.112;2022-12-20T02:22:30;0.60;;;0.60;;
69906;SDS011;57190;47.918;8.112;2022-12-20T02:27:33;1.80;;;0.73;;
69906;SDS011;57190;47.918;8.112;2022-12-20T02:30:18;0.80;;;0.80;;
69906;SDS011;57190;47.918;8.112;2022-12-20T02:35:11;1.00;;;0.90;;
69906;SDS011;57190;47.918;8.112;2022-12-20T02:37:46;2.10;;;0.70;;
69906;SDS011;57190;47.918;8.112;2022-12-20T02:40:12;0.93;;;0.80;;
69906;SDS011;57190;47.918;8.112;2022-12-20T02:42:39;1.80;;;1.00;;
69906;SDS011;57190;47.918;8.112;2022-12-20T02:45:05;0.97;;;0.70;;
69906;SDS011;57190;47.918;8.112;2022-12-20T02:47:41;0.60;;;0.60;;
69906;SDS011;57190;47.918;8.112;2022-12-20T02:50:13;0.60;;;0.60;;
69906;SDS011;57190;47.918;8.112;2022-12-20T02:52:45;0.80;;;0.77;;
69906;SDS011;57190;47.918;8.112;2022-12-20T02:55:11;0.70;;;0.60;;
69906;SDS011;57190;47.918;8.112;2022-12-20T02:57:44;1.10;;;0.77;;
69906;SDS011;57190;47.918;8.112;2022-12-20T03:00:27;0.97;;;0.80;;
69906;SDS011;57190;47.918;8.112;2022-12-20T03:03:00;0.80;;;0.80;;
69906;SDS011;57190;47.918;8.112;2022-12-20T03:05:45;0.63;;;0.63;;
69906;SDS011;57190;47.918;8.112;2022-12-20T03:08:12;0.60;;;0.60;;
69906;SDS011;57190;47.918;8.112;2022-12-20T03:10:38;0.80;;;0.73;;
69906;SDS011;57190;47.918;8.112;2022-12-20T03:13:03;0.80;;;0.80;;
69906;SDS011;57190;47.918;8.112;2022-12-20T03:15:29;1.57;;;0.90;;
69906;SDS011;57190;47.918;8.112;2022-12-20T03:17:54;0.60;;;0.60;;
69906;SDS011;57190;47.918;8.112;2022-12-20T03:20:20;0.93;;;0.70;;
69906;SDS011;57190;47.918;8.112;2022-12-20T03:22:45;0.70;;;0.70;;
69906;SDS011;57190;47.918;8.112;2022-12-20T03:25:11;1.63;;;0.70;;
69906;SDS011;57190;47.918;8.112;2022-12-20T03:27:36;0.70;;;0.70;;
69906;SDS011;57190;47.918;8.112;2022-12-20T03:30:02;0.67;;;0.67;;
69906;SDS011;57190;47.918;8.112;2022-12-20T03:35:00;0.70;;;0.70;;
69906;SDS011;57190;47.918;8.112;2022-12-20T03:37:26;0.87;;;0.83;;
69906;SDS011;57190;47.918;8.112;2022-12-20T03:39:51;1.53;;;0.80;;
69906;SDS011;57190;47.918;8.112;2022-12-20T03:42:17;1.00;;;0.80;;
69906;SDS011;57190;47.918;8.112;2022-12-20T03:44:42;0.83;;;0.70;;
69906;SDS011;57190;47.918;8.112;2022-12-20T03:47:08;1.00;;;0.70;;
69906;SDS011;57190;47.918;8.112;2022-12-20T03:49:33;1.03;;;0.70;;
69906;SDS011;57190;47.918;8.112;2022-12-20T03:51:59;1.30;;;0.90;;
69906;SDS011;57190;47.918;8.112;2022-12-20T03:54:24;0.80;;;0.80;;
69906;SDS011;57190;47.918;8.112;2022-12-20T03:56:50;0.80;;;0.80;;
69906;SDS011;57190;47.918;8.112;2022-12-20T03:59:15;0.93;;;0.70;;
69906;SDS011;57190;47.918;8.112;2022-12-20T04:01:41;0.70;;;0.70;;
69906;SDS011;57190;47.918;8.112;2022-12-20T04:04:08;0.90;;;0.90;;
69906;SDS011;57190;47.918;8.112;2022-12-20T04:06:35;0.80;;;0.80;;
69906;SDS011;57190;47.918;8.112;2022-12-20T04:09:00;0.60;;;0.60;;
69906;SDS011;57190;47.918;8.112;2022-12-20T04:11:25;0.80;;;0.70;;
69906;SDS011;57190;47.918;8.112;2022-12-20T04:13:52;1.23;;;0.80;;
69906;SDS011;57190;47.918;8.112;2022-12-20T04:16:19;0.53;;;0.53;;
69906;SDS011;57190;47.918;8.112;2022-12-20T04:18:46;0.60;;;0.60;;
69906;SDS011;57190;47.918;8.112;2022-12-20T04:21:12;0.50;;;0.50;;
69906;SDS011;57190;47.918;8.112;2022-12-20T04:26:26;0.83;;;0.80;;
69906;SDS011;57190;47.918;8.112;2022-12-20T04:28:52;1.27;;;0.80;;
69906;SDS011;57190;47.918;8.112;2022-12-20T04:31:18;0.80;;;0.80;;
69906;SDS011;57190;47.918;8.112;2022-12-20T04:33:44;0.70;;;0.70;;
69906;SDS011;57190;47.918;8.112;2022-12-20T04:36:10;0.77;;;0.77;;
69906;SDS011;57190;47.918;8.112;2022-12-20T04:38:36;1.27;;;0.80;;
69906;SDS011;57190;47.918;8.112;2022-12-20T04:41:01;0.70;;;0.70;;
69906;SDS011;57190;47.918;8.112;2022-12-20T04:43:27;0.87;;;0.70;;
69906;SDS011;57190;47.918;8.112;2022-12-20T04:45:53;0.70;;;0.70;;
69906;SDS011;57190;47.918;8.112;2022-12-20T04:48:23;0.70;;;0.70;;
69906;SDS011;57190;47.918;8.112;2022-12-20T04:50:53;0.80;;;0.80;;
69906;SDS011;57190;47.918;8.112;2022-12-20T04:53:20;0.60;;;0.60;;
69906;SDS011;57190;47.918;8.112;2022-12-20T04:56:05;1.13;;;0.70;;
69906;SDS011;57190;47.918;8.112;2022-12-20T04:58:31;0.50;;;0.50;;
69906;SDS011;57190;47.918;8.112;2022-12-20T05:00:57;0.73;;;0.50;;
69906;SDS011;57190;47.918;8.112;2022-12-20T05:03:23;0.50;;;0.50;;
69906;SDS011;57190;47.918;8.112;2022-12-20T05:05:50;0.70;;;0.70;;
69906;SDS011;57190;47.918;8.112;2022-12-20T05:08:16;1.60;;;0.70;;
69906;SDS011;57190;47.918;8.112;2022-12-20T05:10:42;1.57;;;0.80;;
69906;SDS011;57190;47.918;8.112;2022-12-20T05:13:08;0.60;;;0.60;;
69906;SDS011;57190;47.918;8.112;2022-12-20T05:15:34;0.60;;;0.60;;
69906;SDS011;57190;47.918;8.112;2022-12-20T05:18:01;1.27;;;0.67;;
69906;SDS011;57190;47.918;8.112;2022-12-20T05:20:27;0.70;;;0.70;;
69906;SDS011;57190;47.918;8.112;2022-12-20T05:22:55;0.67;;;0.67;;
69906;SDS011;57190;47.918;8.112;2022-12-20T05:25:41;0.60;;;0.57;;
69906;SDS011;57190;47.918;8.112;2022-12-20T05:28:28;0.70;;;0.70;;
69906;SDS011;57190;47.918;8.112;2022-12-20T05:30:54;0.60;;;0.60;;
69906;SDS011;57190;47.918;8.112;2022-12-20T05:33:20;0.60;;;0.60;;
69906;SDS011;57190;47.918;8.112;2022-12-20T05:35:45;0.80;;;0.80;;
69906;SDS011;57190;47.918;8.112;2022-12-20T05:38:11;1.40;;;0.83;;
69906;SDS011;57190;47.918;8.112;2022-12-20T05:40:36;0.93;;;0.80;;
69906;SDS011;57190;47.918;8.112;2022-12-20T05:43:03;0.67;;;0.63;;
69906;SDS011;57190;47.918;8.112;2022-12-20T05:45:30;1.10;;;0.70;;
69906;SDS011;57190;47.918;8.112;2022-12-20T05:47:56;1.20;;;1.10;;
69906;SDS011;57190;47.918;8.112;2022-12-20T05:50:21;0.93;;;0.83;;
69906;SDS011;57190;47.918;8.112;2022-12-20T05:52:47;0.70;;;0.70;;
69906;SDS011;57190;47.918;8.112;2022-12-20T05:55:12;0.73;;;0.73;;
69906;SDS011;57190;47.918;8.112;2022-12-20T05:57:38;0.73;;;0.70;;
69906;SDS011;57190;47.918;8.112;2022-12-20T06:00:04;0.80;;;0.77;;
69906;SDS011;57190;47.918;8.112;2022-12-20T06:02:30;1.47;;;0.80;;
69906;SDS011;57190;47.918;8.112;2022-12-20T06:04:55;0.70;;;0.70;;
69906;SDS011;57190;47.918;8.112;2022-12-20T06:07:22;0.70;;;0.70;;
69906;SDS011;57190;47.918;8.112;2022-12-20T06:09:48;0.57;;;0.57;;
69906;SDS011;57190;47.918;8.112;2022-12-20T06:12:13;1.27;;;0.70;;
69906;SDS011;57190;47.918;8.112;2022-12-20T06:14:39;0.70;;;0.70;;
69906;SDS011;57190;47.918;8.112;2022-12-20T06:17:04;0.90;;;0.60;;
69906;SDS011;57190;47.918;8.112;2022-12-20T06:19:30;0.90;;;0.90;;
69906;SDS011;57190;47.918;8.112;2022-12-20T06:21:56;1.20;;;1.00;;
69906;SDS011;57190;47.918;8.112;2022-12-20T06:24:21;1.00;;;0.90;;
69906;SDS011;57190;47.918;8.112;2022-12-20T06:26:49;1.53;;;1.43;;
69906;SDS011;57190;47.918;8.112;2022-12-20T06:29:15;1.63;;;1.10;;
69906;SDS011;57190;47.918;8.112;2022-12-20T06:31:42;2.40;;;1.80;;
69906;SDS011;57190;47.918;8.112;2022-12-20T06:34:08;5.80;;;5.33;;
69906;SDS011;57190;47.918;8.112;2022-12-20T06:36:34;3.83;;;3.57;;
69906;SDS011;57190;47.918;8.112;2022-12-20T06:39:00;4.67;;;4.37;;
69906;SDS011;57190;47.918;8.112;2022-12-20T06:41:26;3.93;;;3.63;;
69906;SDS011;57190;47.918;8.112;2022-12-20T06:43:51;3.20;;;3.00;;
69906;SDS011;57190;47.918;8.112;2022-12-20T06:46:17;2.23;;;2.03;;
69906;SDS011;57190;47.918;8.112;2022-12-20T06:48:42;3.70;;;3.40;;
69906;SDS011;57190;47.918;8.112;2022-12-20T06:51:08;2.40;;;2.30;;
69906;SDS011;57190;47.918;8.112;2022-12-20T06:53:35;1.97;;;1.87;;
69906;SDS011;57190;47.918;8.112;2022-12-20T06:56:00;2.10;;;2.00;;
69906;SDS011;57190;47.918;8.112;2022-12-20T06:58:26;2.07;;;1.97;;
69906;SDS011;57190;47.918;8.112;2022-12-20T07:00:51;1.80;;;1.70;;
69906;SDS011;57190;47.918;8.112;2022-12-20T07:03:18;1.00;;;1.00;;
69906;SDS011;57190;47.918;8.112;2022-12-20T07:05:43;1.30;;;1.20;;
69906;SDS011;57190;47.918;8.112;2022-12-20T07:08:09;1.40;;;1.20;;
69906;SDS011;57190;47.918;8.112;2022-12-20T07:10:35;1.00;;;1.00;;
69906;SDS011;57190;47.918;8.112;2022-12-20T07:13:01;0.80;;;0.80;;
69906;SDS011;57190;47.918;8.112;2022-12-20T07:15:27;0.80;;;0.80;;
69906;SDS011;57190;47.918;8.112;2022-12-20T07:17:52;0.90;;;0.90;;
69906;SDS011;57190;47.918;8.112;2022-12-20T07:20:18;1.07;;;0.77;;
69906;SDS011;57190;47.918;8.112;2022-12-20T07:22:45;0.70;;;0.70;;
69906;SDS011;57190;47.918;8.112;2022-12-20T07:25:12;0.90;;;0.80;;
69906;SDS011;57190;47.918;8.112;2022-12-20T07:27:37;0.70;;;0.70;;
69906;SDS011;57190;47.918;8.112;2022-12-20T07:30:03;1.17;;;0.70;;
69906;SDS011;57190;47.918;8.112;2022-12-20T07:32:29;1.53;;;1.00;;
69906;SDS011;57190;47.918;8.112;2022-12-20T07:34:54;1.37;;;1.00;;
69906;SDS011;57190;47.918;8.112;2022-12-20T07:37:20;0.60;;;0.60;;
69906;SDS011;57190;47.918;8.112;2022-12-20T07:39:45;0.60;;;0.60;;
69906;SDS011;57190;47.918;8.112;2022-12-20T07:42:11;0.70;;;0.70;;
69906;SDS011;57190;47.918;8.112;2022-12-20T07:44:36;0.97;;;0.90;;
69906;SDS011;57190;47.918;8.112;2022-12-20T07:47:01;0.83;;;0.63;;
69906;SDS011;57190;47.918;8.112;2022-12-20T07:49:27;1.10;;;0.70;;
69906;SDS011;57190;47.918;8.112;2022-12-20T07:51:54;0.70;;;0.70;;
69906;SDS011;57190;47.918;8.112;2022-12-20T07:54:29;0.70;;;0.70;;
69906;SDS011;57190;47.918;8.112;2022-12-20T07:56:58;1.07;;;0.70;;
69906;SDS011;57190;47.918;8.112;2022-12-20T07:59:29;0.80;;;0.80;;
69906;SDS011;57190;47.918;8.112;2022-12-20T08:02:01;1.03;;;0.80;;
69906;SDS011;57190;47.918;8.112;2022-12-20T08:04:28;1.70;;;1.00;;
69906;SDS011;57190;47.918;8.112;2022-12-20T08:06:55;0.87;;;0.77;;
69906;SDS011;57190;47.918;8.112;2022-12-20T08:09:23;0.83;;;0.83;;
69906;SDS011;57190;47.918;8.112;2022-12-20T08:11:52;0.70;;;0.70;;
69906;SDS011;57190;47.918;8.112;2022-12-20T08:14:17;0.70;;;0.70;;
69906;SDS011;57190;47.918;8.112;2022-12-20T08:16:43;1.10;;;1.00;;
69906;SDS011;57190;47.918;8.112;2022-12-20T08:19:09;1.10;;;1.00;;
69906;SDS011;57190;47.918;8.112;2022-12-20T08:21:35;1.03;;;0.90;;
69906;SDS011;57190;47.918;8.112;2022-12-20T08:24:00;0.80;;;0.73;;
69906;SDS011;57190;47.918;8.112;2022-12-20T08:26:26;0.93;;;0.67;;
69906;SDS011;57190;47.918;8.112;2022-12-20T08:28:52;1.53;;;0.80;;
69906;SDS011;57190;47.918;8.112;2022-12-20T08:31:18;0.93;;;0.83;;
69906;SDS011;57190;47.918;8.112;2022-12-20T08:33:44;1.80;;;0.77;;
69906;SDS011;57190;47.918;8.112;2022-12-20T08:36:11;0.83;;;0.70;;
69906;SDS011;57190;47.918;8.112;2022-12-20T08:38:37;3.67;;;3.00;;
69906;SDS011;57190;47.918;8.112;2022-12-20T08:41:04;4.47;;;3.27;;
69906;SDS011;57190;47.918;8.112;2022-12-20T08:43:32;14.73;;;8.67;;
69906;SDS011;57190;47.918;8.112;2022-12-20T08:45:58;26.23;;;15.57;;
69906;SDS011;57190;47.918;8.112;2022-12-20T08:48:24;20.97;;;13.23;;
69906;SDS011;57190;47.918;8.112;2022-12-20T08:50:54;54.50;;;29.13;;
69906;SDS011;57190;47.918;8.112;2022-12-20T08:53:21;58.77;;;32.27;;
69906;SDS011;57190;47.918;8.112;2022-12-20T08:55:47;57.00;;;33.40;;
69906;SDS011;57190;47.918;8.112;2022-12-20T08:58:12;71.10;;;40.73;;
69906;SDS011;57190;47.918;8.112;2022-12-20T09:00:38;45.50;;;29.47;;
69906;SDS011;57190;47.918;8.112;2022-12-20T09:03:03;43.37;;;25.23;;
69906;SDS011;57190;47.918;8.112;2022-12-20T09:05:29;37.10;;;23.23;;
69906;SDS011;57190;47.918;8.112;2022-12-20T09:07:54;22.70;;;13.70;;
69906;SDS011;57190;47.918;8.112;2022-12-20T09:10:19;33.67;;;19.73;;
69906;SDS011;57190;47.918;8.112;2022-12-20T09:12:45;32.90;;;20.67;;
69906;SDS011;57190;47.918;8.112;2022-12-20T09:15:10;36.17;;;22.20;;
69906;SDS011;57190;47.918;8.112;2022-12-20T09:17:36;35.13;;;23.10;;
69906;SDS011;57190;47.918;8.112;2022-12-20T09:20:02;29.43;;;19.33;;
69906;SDS011;57190;47.918;8.112;2022-12-20T09:22:28;49.43;;;33.63;;
69906;SDS011;57190;47.918;8.112;2022-12-20T09:24:54;21.80;;;15.67;;
69906;SDS011;57190;47.918;8.112;2022-12-20T09:27:19;21.43;;;16.87;;
69906;SDS011;57190;47.918;8.112;2022-12-20T09:29:45;27.47;;;22.03;;
69906;SDS011;57190;47.918;8.112;2022-12-20T09:32:10;16.93;;;14.17;;
69906;SDS011;57190;47.918;8.112;2022-12-20T09:34:37;11.23;;;10.00;;
69906;SDS011;57190;47.918;8.112;2022-12-20T09:37:03;3.77;;;3.40;;
69906;SDS011;57190;47.918;8.112;2022-12-20T09:39:29;3.80;;;3.23;;
69906;SDS011;57190;47.918;8.112;2022-12-20T09:41:56;3.90;;;3.60;;
69906;SDS011;57190;47.918;8.112;2022-12-20T09:44:28;3.80;;;3.17;;
69906;SDS011;57190;47.918;8.112;2022-12-20T09:47:15;2.83;;;2.53;;
69906;SDS011;57190;47.918;8.112;2022-12-20T09:49:46;2.17;;;1.97;;
69906;SDS011;57190;47.918;8.112;2022-12-20T09:55:24;1.40;;;1.30;;
69906;SDS011;57190;47.918;8.112;2022-12-20T10:00:56;0.97;;;0.77;;
69906;SDS011;57190;47.918;8.112;2022-12-20T10:03:24;1.00;;;1.00;;
69906;SDS011;57190;47.918;8.112;2022-12-20T10:05:54;1.10;;;0.90;;
69906;SDS011;57190;47.918;8.112;2022-12-20T10:10:56;1.70;;;0.77;;
69906;SDS011;57190;47.918;8.112;2022-12-20T10:16:45;0.90;;;0.80;;
69906;SDS011;57190;47.918;8.112;2022-12-20T10:22:13;1.70;;;1.60;;
69906;SDS011;57190;47.918;8.112;2022-12-20T10:25:00;1.40;;;1.30;;
69906;SDS011;57190;47.918;8.112;2022-12-20T10:27:31;1.17;;;1.10;;
69906;SDS011;57190;47.918;8.112;2022-12-20T10:30:04;1.90;;;1.10;;
69906;SDS011;57190;47.918;8.112;2022-12-20T10:32:37;2.03;;;1.20;;
69906;SDS011;57190;47.918;8.112;2022-12-20T10:37:36;1.10;;;1.03;;
69906;SDS011;57190;47.918;8.112;2022-12-20T10:40:02;0.97;;;0.87;;
69906;SDS011;57190;47.918;8.112;2022-12-20T10:42:35;1.00;;;1.00;;
69906;SDS011;57190;47.918;8.112;2022-12-20T10:45:26;1.00;;;1.00;;
69906;SDS011;57190;47.918;8.112;2022-12-20T10:47:57;0.77;;;0.70;;
69906;SDS011;57190;47.918;8.112;2022-12-20T10:50:25;1.30;;;1.17;;
69906;SDS011;57190;47.918;8.112;2022-12-20T10:55:35;1.30;;;1.20;;
69906;SDS011;57190;47.918;8.112;2022-12-20T10:58:16;1.10;;;1.00;;
69906;SDS011;57190;47.918;8.112;2022-12-20T11:00:41;1.83;;;1.17;;
69906;SDS011;57190;47.918;8.112;2022-12-20T11:03:19;1.37;;;1.10;;
69906;SDS011;57190;47.918;8.112;2022-12-20T11:05:56;1.43;;;1.00;;
69906;SDS011;57190;47.918;8.112;2022-12-20T11:08:24;1.40;;;1.17;;
69906;SDS011;57190;47.918;8.112;2022-12-20T11:13:36;1.60;;;1.10;;
69906;SDS011;57190;47.918;8.112;2022-12-20T11:16:03;1.15;;;0.93;;
69906;SDS011;57190;47.918;8.112;2022-12-20T11:21:54;1.92;;;1.83;;
69906;SDS011;57190;47.918;8.112;2022-12-20T11:24:51;2.15;;;1.90;;
69906;SDS011;57190;47.918;8.112;2022-12-20T11:30:11;2.35;;;1.70;;
69906;SDS011;57190;47.918;8.112;2022-12-20T11:35:12;1.42;;;1.33;;
69906;SDS011;57190;47.918;8.112;2022-12-20T11:37:45;2.78;;;1.75;;
69906;SDS011;57190;47.918;8.112;2022-12-20T11:40:30;1.40;;;1.30;;
69906;SDS011;57190;47.918;8.112;2022-12-20T11:43:11;1.77;;;1.10;;
69906;SDS011;57190;47.918;8.112;2022-12-20T11:54:11;1.40;;;1.23;;
69906;SDS011;57190;47.918;8.112;2022-12-20T11:56:41;1.70;;;1.33;;
69906;SDS011;57190;47.918;8.112;2022-12-20T12:02:12;1.95;;;1.40;;
69906;SDS011;57190;47.918;8.112;2022-12-20T12:04:50;1.38;;;1.27;;
69906;SDS011;57190;47.918;8.112;2022-12-20T12:07:30;1.13;;;1.02;;
69906;SDS011;57190;47.918;8.112;2022-12-20T12:12:42;1.00;;;1.00;;
69906;SDS011;57190;47.918;8.112;2022-12-20T12:15:32;1.27;;;1.00;;
69906;SDS011;57190;47.918;8.112;2022-12-20T12:18:02;1.85;;;1.30;;
69906;SDS011;57190;47.918;8.112;2022-12-20T12:25:51;1.25;;;1.02;;
69906;SDS011;57190;47.918;8.112;2022-12-20T12:28:17;1.10;;;0.95;;
69906;SDS011;57190;47.918;8.112;2022-12-20T12:30:46;0.80;;;0.80;;
69906;SDS011;57190;47.918;8.112;2022-12-20T12:33:19;0.90;;;0.70;;
69906;SDS011;57190;47.918;8.112;2022-12-20T12:47:04;1.05;;;0.80;;
69906;SDS011;57190;47.918;8.112;2022-12-20T12:49:32;0.93;;;0.77;;
69906;SDS011;57190;47.918;8.112;2022-12-20T12:51:59;1.00;;;0.80;;
69906;SDS011;57190;47.918;8.112;2022-12-20T12:54:28;0.88;;;0.75;;
69906;SDS011;57190;47.918;8.112;2022-12-20T12:56:59;0.90;;;0.73;;
69906;SDS011;57190;47.918;8.112;2022-12-20T13:04:30;1.13;;;0.82;;
69906;SDS011;57190;47.918;8.112;2022-12-20T13:10:01;0.50;;;0.50;;
69906;SDS011;57190;47.918;8.112;2022-12-20T13:12:59;0.70;;;0.60;;
69906;SDS011;57190;47.918;8.112;2022-12-20T13:20:26;2.15;;;0.70;;
69906;SDS011;57190;47.918;8.112;2022-12-20T13:25:36;1.25;;;1.00;;
69906;SDS011;57190;47.918;8.112;2022-12-20T13:30:40;1.48;;;0.85;;
69906;SDS011;57190;47.918;8.112;2022-12-20T13:36:28;1.35;;;0.80;;
69906;SDS011;57190;47.918;8.112;2022-12-20T13:38:56;0.98;;;0.80;;
69906;SDS011;57190;47.918;8.112;2022-12-20T13:41:40;0.70;;;0.70;;
69906;SDS011;57190;47.918;8.112;2022-12-20T13:49:11;0.70;;;0.70;;
69906;SDS011;57190;47.918;8.112;2022-12-20T13:51:46;0.88;;;0.80;;
69906;SDS011;57190;47.918;8.112;2022-12-20T13:54:16;0.70;;;0.70;;
69906;SDS011;57190;47.918;8.112;2022-12-20T13:56:48;0.90;;;0.90;;
69906;SDS011;57190;47.918;8.112;2022-12-20T14:01:49;1.10;;;0.60;;
69906;SDS011;57190;47.918;8.112;2022-12-20T14:04:17;1.25;;;0.77;;
69906;SDS011;57190;47.918;8.112;2022-12-20T14:06:48;1.48;;;0.68;;
69906;SDS011;57190;47.918;8.112;2022-12-20T14:09:36;0.80;;;0.80;;
69906;SDS011;57190;47.918;8.112;2022-12-20T14:12:06;1.13;;;1.00;;
69906;SDS011;57190;47.918;8.112;2022-12-20T14:14:47;0.80;;;0.80;;
69906;SDS011;57190;47.918;8.112;2022-12-20T14:17:22;1.75;;;1.13;;
69906;SDS011;57190;47.918;8.112;2022-12-20T14:22:37;0.80;;;0.80;;
69906;SDS011;57190;47.918;8.112;2022-12-20T14:25:07;1.15;;;0.70;;
69906;SDS011;57190;47.918;8.112;2022-12-20T14:27:34;1.10;;;0.90;;
69906;SDS011;57190;47.918;8.112;2022-12-20T14:30:03;0.88;;;0.88;;
69906;SDS011;57190;47.918;8.112;2022-12-20T14:32:30;0.88;;;0.85;;
69906;SDS011;57190;47.918;8.112;2022-12-20T14:34:56;0.73;;;0.70;;
69906;SDS011;57190;47.918;8.112;2022-12-20T14:42:34;1.30;;;0.80;;
69906;SDS011;57190;47.918;8.112;2022-12-20T14:47:47;0.80;;;0.80;;
69906;SDS011;57190;47.918;8.112;2022-12-20T14:50:17;0.80;;;0.73;;
69906;SDS011;57190;47.918;8.112;2022-12-20T14:52:46;0.93;;;0.90;;
69906;SDS011;57190;47.918;8.112;2022-12-20T14:57:49;0.60;;;0.60;;
69906;SDS011;57190;47.918;8.112;2022-12-20T15:05:34;0.70;;;0.70;;
69906;SDS011;57190;47.918;8.112;2022-12-20T15:11:00;0.80;;;0.80;;
69906;SDS011;57190;47.918;8.112;2022-12-20T15:13:28;1.33;;;0.82;;
69906;SDS011;57190;47.918;8.112;2022-12-20T15:16:03;1.00;;;0.70;;
69906;SDS011;57190;47.918;8.112;2022-12-20T15:18:37;0.82;;;0.68;;
69906;SDS011;57190;47.918;8.112;2022-12-20T15:21:04;1.23;;;0.63;;
69906;SDS011;57190;47.918;8.112;2022-12-20T15:23:45;1.08;;;0.90;;
69906;SDS011;57190;47.918;8.112;2022-12-20T15:26:18;0.95;;;0.88;;
69906;SDS011;57190;47.918;8.112;2022-12-20T15:28:45;0.80;;;0.80;;
69906;SDS011;57190;47.918;8.112;2022-12-20T15:31:11;1.17;;;0.88;;
69906;SDS011;57190;47.918;8.112;2022-12-20T15:33:40;2.03;;;1.92;;
69906;SDS011;57190;47.918;8.112;2022-12-20T15:36:12;1.75;;;1.65;;
69906;SDS011;57190;47.918;8.112;2022-12-20T15:38:44;1.10;;;1.00;;
69906;SDS011;57190;47.918;8.112;2022-12-20T15:41:23;1.35;;;1.10;;
69906;SDS011;57190;47.918;8.112;2022-12-20T15:43:51;1.35;;;1.20;;
69906;SDS011;57190;47.918;8.112;2022-12-20T15:46:19;1.65;;;1.30;;
69906;SDS011;57190;47.918;8.112;2022-12-20T15:48:45;1.23;;;1.10;;
69906;SDS011;57190;47.918;8.112;2022-12-20T15:51:12;1.55;;;1.30;;
69906;SDS011;57190;47.918;8.112;2022-12-20T15:53:45;1.63;;;1.00;;
69906;SDS011;57190;47.918;8.112;2022-12-20T15:56:18;1.63;;;1.13;;
69906;SDS011;57190;47.918;8.112;2022-12-20T15:58:46;0.93;;;0.82;;
69906;SDS011;57190;47.918;8.112;2022-12-20T16:01:17;1.10;;;1.00;;
69906;SDS011;57190;47.918;8.112;2022-12-20T16:03:44;1.00;;;1.00;;
69906;SDS011;57190;47.918;8.112;2022-12-20T16:06:10;1.23;;;0.98;;
69906;SDS011;57190;47.918;8.112;2022-12-20T16:08:39;0.85;;;0.85;;
69906;SDS011;57190;47.918;8.112;2022-12-20T16:11:05;1.10;;;1.00;;
69906;SDS011;57190;47.918;8.112;2022-12-20T16:13:41;1.77;;;1.10;;
69906;SDS011;57190;47.918;8.112;2022-12-20T16:16:12;1.10;;;1.00;;
69906;SDS011;57190;47.918;8.112;2022-12-20T16:18:41;1.70;;;1.60;;
69906;SDS011;57190;47.918;8.112;2022-12-20T16:21:19;1.15;;;1.02;;
69906;SDS011;57190;47.918;8.112;2022-12-20T16:23:47;0.70;;;0.70;;
69906;SDS011;57190;47.918;8.112;2022-12-20T16:26:15;1.10;;;1.00;;
69906;SDS011;57190;47.918;8.112;2022-12-20T16:28:43;1.08;;;0.95;;
69906;SDS011;57190;47.918;8.112;2022-12-20T16:31:11;1.00;;;0.90;;
69906;SDS011;57190;47.918;8.112;2022-12-20T16:33:46;1.23;;;0.75;;
69906;SDS011;57190;47.918;8.112;2022-12-20T16:36:13;1.27;;;1.17;;
69906;SDS011;57190;47.918;8.112;2022-12-20T16:38:39;1.13;;;0.88;;
69906;SDS011;57190;47.918;8.112;2022-12-20T16:41:15;1.60;;;0.75;;
69906;SDS011;57190;47.918;8.112;2022-12-20T16:43:43;1.00;;;0.93;;
69906;SDS011;57190;47.918;8.112;2022-12-20T16:46:10;1.17;;;0.80;;
69906;SDS011;57190;47.918;8.112;2022-12-20T16:48:44;1.20;;;1.13;;
69906;SDS011;57190;47.918;8.112;2022-12-20T16:51:21;0.70;;;0.70;;
69906;SDS011;57190;47.918;8.112;2022-12-20T16:53:53;0.77;;;0.77;;
69906;SDS011;57190;47.918;8.112;2022-12-20T16:56:20;1.30;;;0.80;;
69906;SDS011;57190;47.918;8.112;2022-12-20T16:58:46;0.70;;;0.70;;
69906;SDS011;57190;47.918;8.112;2022-12-20T17:01:14;1.87;;;0.70;;
69906;SDS011;57190;47.918;8.112;2022-12-20T17:03:42;0.70;;;0.70;;